Time;durP1;ratioP1;P1;durP2;ratioP2;P2;SDS_P1;SDS_P2;PMS_P1;PMS_P2;Temp;Humidity;BMP_temperature;BMP_pressure;BME280_temperature;BME280_humidity;BME280_pressure;Samples;Min_cycle;Max_cycle;Signal;HPM_P1;HPM_P2
2022/06/06 00:02:24;;;;;;;169.90;46.47;;;;;;;13.34;100.00;101275.47;4934660;29;20024;-57
2022/06/06 00:04:49;;;;;;;150.85;46.25;;;;;;;13.36;100.00;101272.91;4935105;29;20471;-57
2022/06/06 00:07:14;;;;;;;153.38;44.60;;;;;;;13.35;100.00;101271.19;4935076;29;20035;-58
2022/06/06 00:09:40;;;;;;;157.35;49.28;;;;;;;13.35;100.00;101271.19;4934528;29;20031;-57
2022/06/06 00:12:06;;;;;;;152.02;47.80;;;;;;;13.34;100.00;101272.00;4934849;29;20032;-57
2022/06/06 00:14:31;;;;;;;163.57;47.05;;;;;;;13.33;100.00;101278.00;4935272;29;20075;-57
2022/06/06 00:16:57;;;;;;;157.70;47.20;;;;;;;13.33;100.00;101278.00;4934452;29;20098;-57
2022/06/06 00:19:22;;;;;;;164.65;48.17;;;;;;;13.34;100.00;101272.00;4935098;29;20098;-57
2022/06/06 00:21:48;;;;;;;168.50;50.00;;;;;;;13.32;100.00;101276.25;4934924;29;20036;-57
2022/06/06 00:24:16;;;;;;;169.63;50.25;;;;;;;13.33;100.00;101278.00;4937428;29;20054;-57
2022/06/06 00:26:42;;;;;;;172.30;50.63;;;;;;;13.32;100.00;101277.16;4938773;29;20031;-57
2022/06/06 00:29:08;;;;;;;179.20;52.63;;;;;;;13.32;100.00;101264.22;4937975;29;20396;-57
2022/06/06 00:37:10;;;;;;;195.68;53.70;;;;;;;13.30;100.00;101265.88;4937794;29;20192;-57
2022/06/06 00:39:35;;;;;;;202.25;56.67;;;;;;;13.28;100.00;101258.91;4938531;29;20028;-58
2022/06/06 00:42:01;;;;;;;211.65;56.20;;;;;;;13.26;100.00;101258.88;4938318;29;20071;-57
2022/06/06 00:44:33;;;;;;;192.05;54.42;;;;;;;13.25;100.00;101256.25;4937423;29;20063;-57
2022/06/06 00:47:27;;;;;;;202.20;57.83;;;;;;;13.26;100.00;101261.47;4938028;29;20028;-57
2022/06/06 00:50:05;;;;;;;203.93;56.63;;;;;;;13.25;100.00;101258.84;4937097;29;20067;-57
2022/06/06 00:52:38;;;;;;;208.85;57.35;;;;;;;13.25;100.00;101256.25;4937528;29;20090;-57
2022/06/06 00:55:15;;;;;;;217.75;57.15;;;;;;;13.25;100.00;101253.66;4937952;29;20034;-57
2022/06/06 00:57:44;;;;;;;;;;;;;;;13.29;100.00;101255.47;4938279;29;20039;-57
2022/06/06 01:00:14;;;;;;;227.18;59.67;;;;;;;13.26;100.00;101250.22;4937269;29;19915;-57
2022/06/06 01:02:40;;;;;;;224.32;57.75;;;;;;;13.27;100.00;101251.97;4938069;29;20020;-57
2022/06/06 01:05:06;;;;;;;216.07;59.38;;;;;;;13.26;100.00;101251.09;4937008;29;20028;-57
2022/06/06 01:07:33;;;;;;;225.18;57.75;;;;;;;13.27;100.00;101258.03;4937737;29;20114;-57
2022/06/06 01:09:58;;;;;;;231.77;59.88;;;;;;;13.27;100.00;101252.88;4937543;29;20020;-57
2022/06/06 01:12:24;;;;;;;218.98;56.67;;;;;;;13.30;100.00;101252.06;4936802;29;20048;-57
2022/06/06 01:14:55;;;;;;;224.35;57.53;;;;;;;13.29;100.00;101258.06;4937863;29;20031;-57
2022/06/06 01:17:26;;;;;;;238.30;58.17;;;;;;;13.27;100.00;101251.97;4937739;29;20038;-57
2022/06/06 01:20:17;;;;;;;216.55;55.92;;;;;;;13.28;100.00;101248.56;4936874;29;20049;-57
2022/06/06 01:23:10;;;;;;;230.43;56.08;;;;;;;13.29;100.00;101255.47;4927458;29;20052;-57
2022/06/06 01:26:26;;;;;;;205.98;54.35;;;;;;;13.31;100.00;101251.19;4937437;29;20046;-57
2022/06/06 01:29:02;;;;;;;220.02;56.42;;;;;;;13.31;100.00;101238.25;4928399;29;20072;-57
2022/06/06 01:31:30;;;;;;;228.55;58.75;;;;;;;13.31;100.00;101235.66;4937112;29;20524;-57
2022/06/06 01:34:02;;;;;;;220.73;56.70;;;;;;;13.29;100.00;101247.72;4936221;29;20031;-57
2022/06/06 01:36:30;;;;;;;213.50;56.85;;;;;;;13.28;100.00;101253.72;4937065;29;20483;-57
2022/06/06 01:38:56;;;;;;;;;;;;;;;13.31;100.00;101258.97;4937362;29;20031;-57
2022/06/06 01:41:30;;;;;;;232.03;58.83;;;;;;;13.29;100.00;101260.66;4936565;29;20005;-57
2022/06/06 01:44:02;;;;;;;248.13;63.13;;;;;;;13.28;100.00;101248.56;4937221;29;20087;-57
2022/06/06 01:46:33;;;;;;;238.55;63.67;;;;;;;13.28;100.00;101257.19;4936997;29;20036;-57
2022/06/06 01:48:59;;;;;;;256.42;69.60;;;;;;;13.30;100.00;101252.06;4936477;29;20111;-57
2022/06/06 01:51:28;;;;;;;253.30;67.18;;;;;;;13.30;100.00;101254.66;4936759;29;20146;-57
2022/06/06 01:53:54;;;;;;;253.75;68.85;;;;;;;13.32;100.00;101251.25;4936576;29;20034;-57
2022/06/06 01:56:33;;;;;;;261.02;68.45;;;;;;;13.34;100.00;101246.13;4936487;29;20031;-57
2022/06/06 01:58:59;;;;;;;268.05;72.35;;;;;;;13.36;100.00;101246.16;4936886;29;20062;-57
2022/06/06 02:01:25;;;;;;;252.77;68.40;;;;;;;13.36;100.00;101244.44;4936050;29;20059;-57
2022/06/06 02:03:51;;;;;;;274.35;72.63;;;;;;;13.37;100.00;101238.44;4936817;29;20027;-57
2022/06/06 02:06:16;;;;;;;267.83;71.47;;;;;;;13.36;100.00;101235.78;4936616;29;20047;-57
2022/06/06 02:08:47;;;;;;;269.15;72.97;;;;;;;13.38;100.00;101236.75;4935959;29;20028;-57
2022/06/06 02:11:13;;;;;;;254.18;71.85;;;;;;;13.37;100.00;101238.44;4936699;29;20027;-57
2022/06/06 02:13:39;;;;;;;250.13;69.97;;;;;;;13.37;100.00;101228.09;4936523;29;20379;-57
2022/06/06 02:16:04;;;;;;;244.80;69.75;;;;;;;13.38;100.00;101221.22;4935737;29;20031;-57
2022/06/06 02:18:30;;;;;;;234.20;69.03;;;;;;;13.37;100.00;101220.31;4936411;29;20035;-57
2022/06/06 02:20:55;;;;;;;236.05;66.95;;;;;;;13.38;100.00;101216.03;4936216;29;20027;-57
2022/06/06 02:23:21;;;;;;;237.30;65.90;;;;;;;13.39;100.00;101221.25;4935474;29;20048;-57
2022/06/06 02:25:47;;;;;;;235.20;66.22;;;;;;;13.40;100.00;101225.59;4936480;29;20043;-57
2022/06/06 02:28:15;;;;;;;238.52;67.22;;;;;;;13.42;100.00;101225.63;4936058;29;20028;-57
2022/06/06 02:30:41;;;;;;;229.10;65.43;;;;;;;13.41;100.00;101229.03;4935839;29;20445;-57
2022/06/06 02:33:07;;;;;;;255.00;71.47;;;;;;;13.43;100.00;101232.56;4936016;29;20039;-57
2022/06/06 02:35:37;;;;;;;252.02;70.32;;;;;;;13.42;100.00;101231.66;4935894;29;20028;-57
2022/06/06 02:38:03;;;;;;;240.52;70.78;;;;;;;13.42;100.00;101225.63;4935721;29;20031;-57
2022/06/06 02:40:29;;;;;;;251.80;71.38;;;;;;;13.40;100.00;101225.59;4936188;29;20035;-57
2022/06/06 02:42:54;;;;;;;237.77;69.13;;;;;;;13.43;100.00;101228.25;4935902;29;20058;-57
2022/06/06 02:45:21;;;;;;;237.10;66.60;;;;;;;13.40;100.00;101225.59;4935446;29;20391;-57
2022/06/06 02:47:50;;;;;;;239.20;68.63;;;;;;;13.40;100.00;101227.28;4935213;29;20480;-57
2022/06/06 02:50:18;;;;;;;240.82;66.97;;;;;;;13.40;100.00;101223.00;4935786;29;20042;-57
2022/06/06 02:52:44;;;;;;;234.50;65.93;;;;;;;13.38;100.00;101221.22;4935436;29;20569;-57
2022/06/06 02:55:11;;;;;;;225.15;64.88;;;;;;;13.36;100.00;101221.13;4935884;29;20024;-57
2022/06/06 02:57:39;;;;;;;246.43;70.68;;;;;;;13.37;100.00;101222.06;4935293;29;20035;-57
2022/06/06 03:00:06;;;;;;;243.10;74.40;;;;;;;13.34;100.00;101222.81;4935772;29;20028;-57
2022/06/06 03:02:33;;;;;;;236.45;69.82;;;;;;;13.34;100.00;101220.22;4935697;29;20032;-57
2022/06/06 03:04:58;;;;;;;238.02;68.10;;;;;;;13.33;100.00;101213.28;4934894;29;20069;-57
2022/06/06 03:07:58;;;;;;;224.98;67.97;;;;;;;13.32;100.00;101220.19;4935870;29;20063;-57
2022/06/06 03:10:48;;;;;;;237.18;66.22;;;;;;;13.30;100.00;101210.66;4935377;29;20543;-57
2022/06/06 03:13:32;;;;;;;229.95;67.20;;;;;;;13.30;100.00;101216.69;4935104;29;20036;-57
2022/06/06 03:22:27;;;;;;;219.75;62.83;;;;;;;13.28;100.00;101222.66;4935764;29;20148;-57
2022/06/06 03:25:00;;;;;;;209.25;59.60;;;;;;;13.24;100.00;101226.03;4935340;29;20051;-58
2022/06/06 03:27:54;;;;;;;205.20;61.67;;;;;;;13.26;100.00;101225.22;4934879;29;20064;-57
2022/06/06 03:30:44;;;;;;;211.55;60.58;;;;;;;13.23;100.00;101240.66;4935823;29;20032;-57
2022/06/06 03:33:41;;;;;;;203.00;60.55;;;;;;;13.24;100.00;101231.19;4934524;29;20064;-57
2022/06/06 03:36:18;;;;;;;208.20;61.63;;;;;;;13.23;100.00;101235.47;4926190;29;20051;-57
2022/06/06 03:39:04;;;;;;;186.95;58.42;;;;;;;13.19;100.00;101233.66;4935189;29;20052;-57
2022/06/06 03:41:47;;;;;;;176.20;56.75;;;;;;;13.19;100.00;101244.00;4934985;29;20024;-57
2022/06/06 03:44:27;;;;;;;184.25;56.90;;;;;;;13.14;100.00;101230.97;4935415;29;20032;-57
2022/06/06 03:47:15;;;;;;;181.18;54.47;;;;;;;13.11;100.00;101241.22;4934526;29;20467;-57
2022/06/06 03:49:43;;;;;;;180.38;55.83;;;;;;;13.09;100.00;101236.84;4935479;29;20111;-57
2022/06/06 03:52:19;;;;;;;163.85;53.08;;;;;;;13.04;100.00;101239.34;4935105;29;20098;-57
2022/06/06 03:55:07;;;;;;;149.90;50.45;;;;;;;12.99;100.00;101238.34;4934694;29;20436;-57
2022/06/06 03:57:34;;;;;;;170.82;53.67;;;;;;;12.93;100.00;101240.75;4936277;29;20042;-57
2022/06/06 04:00:12;;;;;;;154.57;50.30;;;;;;;12.92;100.00;101249.34;4938587;29;20356;-57
2022/06/06 04:02:38;;;;;;;155.13;49.20;;;;;;;12.93;100.00;101245.94;4938609;29;20024;-57
2022/06/06 04:05:07;;;;;;;140.00;47.60;;;;;;;12.92;100.00;101254.53;4938664;29;20066;-57
2022/06/06 04:07:33;;;;;;;146.60;49.05;;;;;;;12.93;100.00;101253.69;4939005;29;20032;-57
2022/06/06 04:10:00;;;;;;;139.75;49.60;;;;;;;12.89;100.00;101255.31;4938443;29;20027;-57
2022/06/06 04:12:37;;;;;;;143.10;48.92;;;;;;;12.88;100.00;101257.88;4938786;29;20050;-57
2022/06/06 04:15:08;;;;;;;138.23;47.58;;;;;;;12.82;100.00;101249.13;4938038;29;20032;-57
2022/06/06 04:18:09;;;;;;;130.25;46.70;;;;;;;12.78;100.00;101252.47;4938744;29;20042;-57
2022/06/06 04:20:54;;;;;;;121.85;43.80;;;;;;;12.67;100.00;101254.75;4938569;29;20143;-57
2022/06/06 04:23:51;;;;;;;142.73;45.80;;;;;;;12.63;100.00;101257.22;4937933;29;20062;-57
2022/06/06 04:26:46;;;;;;;127.50;42.50;;;;;;;12.59;100.00;101257.94;4938406;29;20028;-57
2022/06/06 04:29:51;;;;;;;112.03;40.58;;;;;;;12.54;100.00;101259.53;4937689;29;20387;-57
2022/06/06 04:32:38;;;;;;;119.35;41.80;;;;;;;12.47;100.00;101267.13;4938193;29;20036;-57
2022/06/06 04:35:31;;;;;;;123.90;41.20;;;;;;;12.43;100.00;101264.41;4938269;29;20028;-57
2022/06/06 04:38:22;;;;;;;113.00;39.80;;;;;;;12.34;100.00;101265.91;4937667;29;20444;-57
2022/06/06 04:40:55;;;;;;;112.97;40.58;;;;;;;12.28;100.00;101264.84;4935001;29;20083;-57
2022/06/06 04:43:27;;;;;;;114.03;40.08;;;;;;;12.24;100.00;101278.47;4937447;29;20387;-57
2022/06/06 04:46:01;;;;;;;102.97;39.47;;;;;;;12.21;100.00;101274.09;4938154;29;20020;-57
2022/06/06 04:48:27;;;;;;;110.55;41.33;;;;;;;12.19;100.00;101279.22;4937929;29;20028;-57
2022/06/06 04:50:54;;;;;;;102.57;38.33;;;;;;;12.17;100.00;101273.16;4937354;29;20027;-57
2022/06/06 04:53:22;;;;;;;99.93;37.53;;;;;;;12.19;100.00;101276.66;4938001;29;20035;-57
2022/06/06 04:55:50;;;;;;;109.63;38.80;;;;;;;12.17;100.00;101280.91;4937837;29;20070;-57
2022/06/06 04:58:20;;;;;;;108.25;40.70;;;;;;;12.16;100.00;101273.97;4937445;29;20035;-57
2022/06/06 05:00:46;;;;;;;112.68;41.03;;;;;;;12.14;100.00;101273.03;4938004;29;20035;-57
2022/06/06 05:03:13;;;;;;;104.03;40.00;;;;;;;12.15;100.00;101277.38;4937505;29;20071;-57
2022/06/06 05:06:07;;;;;;;105.32;41.40;;;;;;;12.18;100.00;101277.47;4937293;29;20469;-57
2022/06/06 05:09:10;;;;;;;100.95;41.47;;;;;;;12.18;100.00;101279.19;4937741;29;20039;-57
2022/06/06 05:12:01;;;;;;;102.10;40.97;;;;;;;12.19;100.00;101270.63;4936870;29;20087;-57
2022/06/06 05:14:39;;;;;;;109.03;43.10;;;;;;;12.19;100.00;101271.47;4937557;29;20503;-57
2022/06/06 05:17:23;;;;;;;101.45;40.65;;;;;;;12.23;100.00;101276.75;4937482;29;20035;-57
2022/06/06 05:20:16;;;;;;;98.82;40.85;;;;;;;12.26;100.00;101276.84;4937018;29;20051;-57
2022/06/06 05:22:41;;;;;;;104.63;41.05;;;;;;;12.28;100.00;101277.78;4937406;29;20480;-57
2022/06/06 05:25:20;;;;;;;99.93;39.93;;;;;;;12.28;100.00;101275.19;4937257;29;20031;-57
2022/06/06 05:28:12;;;;;;;99.40;40.70;;;;;;;12.29;100.00;101282.97;4937515;29;20283;-57
2022/06/06 05:31:03;;;;;;;96.53;43.05;;;;;;;12.33;100.00;101283.91;4934011;29;20047;-56
2022/06/06 05:33:29;;;;;;;98.38;42.85;;;;;;;12.37;100.00;101279.72;4936886;29;20020;-56
2022/06/06 05:36:12;;;;;;;105.90;43.97;;;;;;;12.40;100.00;101285.88;4937234;29;20086;-57
2022/06/06 05:38:42;;;;;;;105.18;44.20;;;;;;;12.43;100.00;101285.94;4937092;29;20322;-56
2022/06/06 05:41:49;;;;;;;98.95;43.80;;;;;;;12.48;100.00;101289.53;4936437;29;20035;-57
2022/06/06 05:44:33;;;;;;;;;;;;;;;12.52;100.00;101295.69;4937232;29;20035;-56
2022/06/06 05:47:04;;;;;;;98.18;44.25;;;;;;;12.46;99.78;101291.22;4936381;29;19915;-57
2022/06/06 05:49:38;;;;;;;92.15;42.50;;;;;;;12.50;100.00;101298.22;4936980;29;20030;-56
2022/06/06 05:52:12;;;;;;;83.45;41.08;;;;;;;12.60;99.84;101293.31;4936509;29;20400;-57
2022/06/06 05:55:01;;;;;;;89.07;42.25;;;;;;;12.71;99.65;101297.09;4936407;29;20447;-56
2022/06/06 05:57:45;;;;;;;78.30;39.53;;;;;;;12.78;98.35;101299.03;4936810;29;20049;-57
2022/06/06 06:00:25;;;;;;;79.53;38.38;;;;;;;12.78;97.37;101290.38;4936594;29;20028;-57
2022/06/06 06:03:12;;;;;;;74.07;36.53;;;;;;;12.76;96.87;101295.50;4936784;29;20091;-57
2022/06/06 06:05:40;;;;;;;76.72;38.08;;;;;;;12.74;97.40;101302.31;4936543;29;20095;-56
2022/06/06 06:08:45;;;;;;;60.97;31.17;;;;;;;12.77;95.75;101296.38;4936049;29;20042;-56
2022/06/06 06:11:48;;;;;;;67.13;32.53;;;;;;;12.87;96.31;101292.34;4936521;29;20051;-56
2022/06/06 06:14:50;;;;;;;65.93;33.83;;;;;;;12.88;94.88;101304.44;4936289;29;20036;-56
2022/06/06 06:17:23;;;;;;;62.90;32.92;;;;;;;12.87;94.61;101298.38;4936566;29;20039;-56
2022/06/06 06:20:06;;;;;;;63.38;33.47;;;;;;;12.89;94.90;101301.88;4936039;29;20495;-57
2022/06/06 06:22:38;;;;;;;66.38;34.80;;;;;;;12.97;95.66;101299.50;4935654;29;20381;-56
2022/06/06 06:25:05;;;;;;;67.43;35.10;;;;;;;13.01;94.49;101306.50;4936395;29;20043;-56
2022/06/06 06:27:34;;;;;;;60.00;31.58;;;;;;;13.04;92.53;101308.31;4936297;29;20035;-57
2022/06/06 06:30:01;;;;;;;65.13;32.97;;;;;;;13.14;93.92;101320.66;4935885;29;20070;-56
2022/06/06 06:32:35;;;;;;;53.17;29.85;;;;;;;13.15;92.15;101320.69;4935892;29;20399;-56
2022/06/06 06:35:21;;;;;;;59.63;29.70;;;;;;;13.17;92.66;101325.94;4935829;29;20115;-56
2022/06/06 06:38:15;;;;;;;55.63;28.50;;;;;;;13.20;91.71;101315.66;4935571;29;20383;-57
2022/06/06 06:40:48;;;;;;;50.30;26.02;;;;;;;13.12;90.71;101328.38;4935925;29;20399;-56
2022/06/06 06:43:16;;;;;;;48.25;25.35;;;;;;;13.22;91.84;101332.09;4935426;29;20039;-57
2022/06/06 06:45:50;;;;;;;44.92;24.20;;;;;;;13.27;90.52;101327.94;4936017;29;20024;-56
2022/06/06 06:48:29;;;;;;;46.45;21.08;;;;;;;13.30;90.59;101333.19;4935893;29;20458;-57
2022/06/06 06:51:06;;;;;;;36.08;19.60;;;;;;;13.37;89.79;101335.97;4935486;29;20043;-56
2022/06/06 06:54:03;;;;;;;39.85;19.80;;;;;;;13.50;90.98;101341.50;4935927;29;20074;-55
2022/06/06 06:56:50;;;;;;;33.35;17.52;;;;;;;13.61;87.99;101335.72;4935821;29;20023;-56
2022/06/06 06:59:33;;;;;;;26.65;16.15;;;;;;;13.60;86.86;101342.59;4935915;29;20066;-56
2022/06/06 07:08:33;;;;;;;22.08;12.55;;;;;;;13.93;84.88;101338.19;4935929;29;20047;-56
2022/06/06 07:11:07;;;;;;;22.33;9.98;;;;;;;13.98;82.52;101336.59;4934996;29;20045;-56
2022/06/06 07:13:44;;;;;;;17.17;9.52;;;;;;;13.98;80.88;101341.75;4935960;29;20032;-55
2022/06/06 07:16:24;;;;;;;20.63;9.80;;;;;;;13.99;83.11;101343.53;4935264;29;20032;-55
2022/06/06 07:18:55;;;;;;;21.77;10.00;;;;;;;13.93;78.66;101339.09;4935030;29;20027;-55
2022/06/06 07:21:23;;;;;;;19.05;8.93;;;;;;;13.91;80.05;101345.06;4935540;29;20361;-55
2022/06/06 07:23:49;;;;;;;17.15;9.50;;;;;;;13.94;77.52;101346.03;4935166;29;20052;-56
2022/06/06 07:26:15;;;;;;;18.02;8.60;;;;;;;13.95;79.93;101345.16;4935071;29;20024;-56
2022/06/06 07:28:41;;;;;;;14.88;9.88;;;;;;;14.03;77.40;101337.56;4935710;29;20028;-55
2022/06/06 07:31:31;;;;;;;19.38;9.48;;;;;;;14.11;78.17;101349.00;4935102;29;20059;-55
2022/06/06 07:34:19;;;;;;;15.68;9.43;;;;;;;14.19;77.14;101341.41;4938216;29;20055;-55
2022/06/06 07:36:44;;;;;;;14.30;9.27;;;;;;;14.44;75.78;101337.63;4939454;29;20047;-56
2022/06/06 07:39:24;;;;;;;16.90;9.73;;;;;;;14.56;75.40;101347.38;4938731;29;20023;-55
2022/06/06 07:42:25;;;;;;;16.00;9.93;;;;;;;14.64;76.28;101358.84;4939186;29;20284;-56
2022/06/06 07:45:09;;;;;;;14.45;10.15;;;;;;;14.72;75.10;101356.41;4939165;29;20047;-55
2022/06/06 07:47:59;;;;;;;16.77;10.20;;;;;;;14.79;75.17;101354.81;4938742;29;20043;-55
2022/06/06 07:50:34;;;;;;;16.95;10.35;;;;;;;14.79;74.22;101360.84;4938989;29;20494;-54
2022/06/06 07:53:35;;;;;;;16.35;9.20;;;;;;;14.90;75.30;101362.78;4938586;29;20038;-55
2022/06/06 07:56:55;;;;;;;19.23;9.80;;;;;;;14.91;73.04;101361.97;4917808;29;20038;-55
2022/06/06 07:59:49;;;;;;;21.65;10.85;;;;;;;14.71;73.39;101362.44;4917642;29;20092;-55
2022/06/06 08:02:14;;;;;;;14.38;9.27;;;;;;;14.77;74.25;101361.66;4932813;29;20139;-55
2022/06/06 08:05:05;;;;;;;12.57;10.03;;;;;;;15.00;74.40;101359.53;4938896;29;20075;-56
2022/06/06 08:07:42;;;;;;;18.23;9.45;;;;;;;15.13;71.47;101361.53;4938561;29;20298;-56
2022/06/06 08:10:38;;;;;;;13.13;8.70;;;;;;;15.23;70.97;101356.50;4938732;29;20039;-56
2022/06/06 08:13:27;;;;;;;13.90;7.85;;;;;;;15.30;71.48;101363.59;4938374;29;20543;-56
2022/06/06 08:16:20;;;;;;;10.57;7.13;;;;;;;15.27;71.00;101354.03;4938364;29;20118;-56
2022/06/06 08:19:10;;;;;;;14.15;6.85;;;;;;;15.20;70.10;101356.47;4938806;29;20035;-56
2022/06/06 08:21:49;;;;;;;14.52;6.63;;;;;;;15.23;70.73;101347.00;4937997;29;20604;-57
2022/06/06 08:24:25;;;;;;;9.85;6.18;;;;;;;15.41;71.39;101350.78;4938373;29;20047;-56
2022/06/06 08:26:53;;;;;;;12.93;6.30;;;;;;;15.35;68.94;101361.06;4938468;29;20024;-56
2022/06/06 08:29:19;;;;;;;13.15;6.28;;;;;;;15.40;69.45;101344.72;4938014;29;20032;-56
2022/06/06 08:31:45;;;;;;;14.65;6.40;;;;;;;15.50;70.76;101345.75;4938359;29;20380;-57
2022/06/06 08:34:12;;;;;;;10.25;5.75;;;;;;;15.59;71.29;101345.03;4937929;29;20019;-56
2022/06/06 08:36:57;;;;;;;11.05;6.47;;;;;;;15.61;70.99;101349.41;4938093;29;20019;-56
2022/06/06 08:39:36;;;;;;;14.30;6.28;;;;;;;15.57;70.85;101339.81;4938341;29;20016;-56
2022/06/06 08:42:14;;;;;;;14.80;5.68;;;;;;;15.70;70.93;101342.59;4938119;29;20110;-56
2022/06/06 08:45:03;;;;;;;10.38;5.70;;;;;;;15.94;71.33;101337.81;4936969;29;20039;-56
2022/06/06 08:47:57;;;;;;;9.52;5.80;;;;;;;16.07;70.09;101331.06;4938062;29;20044;-57
2022/06/06 08:50:50;;;;;;;13.00;5.80;;;;;;;15.90;69.69;101340.38;4937586;29;20028;-56
2022/06/06 08:53:37;;;;;;;11.88;6.03;;;;;;;15.87;71.29;101329.91;4938162;29;20408;-57
2022/06/06 08:56:08;;;;;;;13.43;6.07;;;;;;;16.03;70.08;101329.28;4937799;29;20039;-57
2022/06/06 08:58:48;;;;;;;10.85;5.50;;;;;;;16.33;70.04;101333.16;4937543;29;20034;-56
2022/06/06 09:01:48;;;;;;;10.73;4.93;;;;;;;16.47;69.06;101320.34;4937545;29;20380;-56
2022/06/06 09:04:51;;;;;;;11.43;5.10;;;;;;;16.42;67.44;101325.50;4929166;29;20039;-56
2022/06/06 09:08:01;;;;;;;12.68;5.22;;;;;;;16.60;67.62;101323.97;4937615;29;20443;-56
2022/06/06 09:10:42;;;;;;;11.00;4.88;;;;;;;16.94;66.70;101327.03;4932368;29;20039;-57
2022/06/06 09:13:44;;;;;;;17.48;7.40;;;;;;;17.20;64.08;101329.03;4937533;29;20032;-56
2022/06/06 09:16:45;;;;;;;22.48;10.07;;;;;;;17.13;64.95;101330.69;4937375;29;20050;-56
2022/06/06 09:19:48;;;;;;;22.52;9.30;;;;;;;17.17;66.41;101326.38;4936862;29;20031;-56
2022/06/06 09:22:37;;;;;;;27.15;11.55;;;;;;;17.20;65.19;101326.44;4936532;29;20395;-56
2022/06/06 09:25:17;;;;;;;28.17;9.18;;;;;;;17.00;61.78;101321.88;4936998;29;20087;-56
2022/06/06 09:28:08;;;;;;;14.85;6.82;;;;;;;16.98;62.89;101323.59;4937477;29;20380;-56
2022/06/06 09:30:43;;;;;;;10.88;5.93;;;;;;;17.22;62.86;101329.91;4937426;29;20035;-56
2022/06/06 09:33:20;;;;;;;12.60;4.53;;;;;;;17.17;60.75;101321.16;4936878;29;20031;-56
2022/06/06 09:36:00;;;;;;;9.38;4.20;;;;;;;17.27;59.60;101305.66;4937496;29;20084;-56
2022/06/06 09:38:51;;;;;;;13.23;3.80;;;;;;;17.51;61.97;101308.47;4936959;29;20515;-56
2022/06/06 09:41:44;;;;;;;10.15;4.47;;;;;;;17.67;61.72;101299.03;4937369;29;20032;-54
2022/06/06 09:44:38;;;;;;;10.18;4.13;;;;;;;17.85;62.54;101298.28;4936827;29;20035;-57
2022/06/06 09:47:30;;;;;;;9.95;3.70;;;;;;;17.90;61.75;101305.28;4927514;29;20119;-55
2022/06/06 09:50:30;;;;;;;9.05;3.25;;;;;;;17.72;60.43;101299.94;4937068;29;20032;-55
2022/06/06 09:53:18;;;;;;;6.90;3.00;;;;;;;17.47;61.53;101294.53;4927783;29;20175;-56
2022/06/06 09:59:07;;;;;;;9.40;3.70;;;;;;;17.02;63.33;101301.94;4936520;29;20070;-55
2022/06/06 10:01:53;;;;;;;13.30;2.85;;;;;;;17.20;59.16;101305.59;4936397;29;20070;-56
2022/06/06 10:04:50;;;;;;;8.32;3.47;;;;;;;17.33;62.55;101294.41;4936431;29;20385;-57
2022/06/06 10:07:46;;;;;;;9.35;4.13;;;;;;;17.49;62.14;101294.53;4936152;29;20114;-55
2022/06/06 10:10:38;;;;;;;7.80;3.58;;;;;;;17.57;60.24;101295.47;4936738;29;20102;-56
2022/06/06 10:13:15;;;;;;;14.65;3.20;;;;;;;17.70;58.73;101281.69;4936408;29;20119;-56
2022/06/06 10:15:46;;;;;;;8.35;2.80;;;;;;;17.82;58.75;101285.22;4936144;29;20388;-56
2022/06/06 10:18:30;;;;;;;9.52;3.10;;;;;;;18.08;59.53;101281.06;4936202;29;20034;-56
2022/06/06 10:21:20;;;;;;;6.85;2.75;;;;;;;18.79;58.86;101277.88;4935773;29;20031;-56
2022/06/06 10:24:20;;;;;;;13.82;3.33;;;;;;;18.93;55.52;101272.72;4936332;29;20055;-57
2022/06/06 10:27:12;;;;;;;9.45;3.08;;;;;;;18.74;55.74;101262.19;4936474;29;20024;-56
2022/06/06 10:30:11;;;;;;;11.52;3.15;;;;;;;18.16;54.44;101267.22;4935957;29;20162;-56
2022/06/06 10:32:51;;;;;;;9.93;2.70;;;;;;;17.95;56.56;101279.25;4936081;29;20047;-56
2022/06/06 10:35:16;;;;;;;8.27;2.75;;;;;;;18.39;55.92;101269.91;4935832;29;20090;-56
2022/06/06 10:37:58;;;;;;;6.57;2.75;;;;;;;19.34;55.15;101266.66;4936316;29;20019;-57
2022/06/06 10:41:00;;;;;;;6.25;2.17;;;;;;;20.21;51.51;101271.75;4936020;29;20028;-57
2022/06/06 10:44:04;;;;;;;21.10;3.13;;;;;;;20.99;50.13;101277.50;4935740;29;20036;-57
2022/06/06 10:46:57;;;;;;;9.25;2.65;;;;;;;21.70;47.59;101264.69;4925125;29;20050;-57
2022/06/06 10:49:57;;;;;;;10.57;2.55;;;;;;;21.90;48.40;101279.38;4935391;29;20166;-57
2022/06/06 10:52:53;;;;;;;12.10;2.50;;;;;;;21.04;46.96;101284.47;4935981;29;20047;-56
2022/06/06 10:55:36;;;;;;;8.57;2.55;;;;;;;19.89;47.91;101275.34;4935678;29;20032;-57
2022/06/06 10:58:30;;;;;;;9.32;3.05;;;;;;;19.10;51.87;101290.16;4935216;29;20436;-56
2022/06/06 11:01:04;;;;;;;8.75;2.97;;;;;;;18.65;53.11;101280.44;4935675;29;20043;-56
2022/06/06 11:03:49;;;;;;;14.77;2.72;;;;;;;18.81;54.36;101277.88;4935220;29;20032;-56
2022/06/06 11:06:32;;;;;;;4.75;2.72;;;;;;;19.90;53.46;101271.84;4935808;29;20036;-57
2022/06/06 11:09:16;;;;;;;9.00;2.65;;;;;;;20.77;50.29;101275.00;4935043;29;20059;-56
2022/06/06 11:12:03;;;;;;;6.88;2.63;;;;;;;21.07;47.83;101264.34;4935277;29;20042;-56
2022/06/06 11:14:31;;;;;;;11.55;2.72;;;;;;;21.22;47.76;101266.84;4935380;29;20030;-56
2022/06/06 11:16:59;;;;;;;9.15;2.83;;;;;;;21.40;48.09;101251.84;4935262;29;20028;-56
2022/06/06 11:19:54;;;;;;;8.02;3.17;;;;;;;21.73;50.15;101261.19;4935687;29;20039;-56
2022/06/06 11:22:29;;;;;;;6.88;2.30;;;;;;;21.76;46.50;101252.41;4935215;29;20436;-56
2022/06/06 11:25:11;;;;;;;10.75;2.42;;;;;;;21.66;47.26;101244.59;4934932;29;20034;-56
2022/06/06 11:27:52;;;;;;;10.25;2.55;;;;;;;21.70;46.12;101238.47;4935762;29;20038;-56
2022/06/06 11:30:48;;;;;;;7.65;2.10;;;;;;;21.93;45.38;101239.94;4935413;29;20028;-56
2022/06/06 11:33:36;;;;;;;7.60;2.15;;;;;;;21.69;46.91;101244.59;4934866;29;20147;-56
2022/06/06 11:36:49;;;;;;;6.70;2.53;;;;;;;21.96;45.83;101232.06;4935404;29;20031;-56
2022/06/06 11:39:42;;;;;;;12.85;2.70;;;;;;;21.04;45.80;101245.16;4934853;29;20095;-56
2022/06/06 11:42:25;;;;;;;7.57;2.28;;;;;;;20.48;47.81;101238.50;4935514;29;20055;-56
2022/06/06 11:45:02;;;;;;;8.18;2.80;;;;;;;19.89;48.42;101246.56;4935390;29;20024;-56
2022/06/06 11:47:32;;;;;;;;;;;;;;;19.77;49.89;101244.81;4935575;29;20412;-56
2022/06/06 11:50:35;;;;;;;7.85;2.30;;;;;;;18.82;51.75;101243.06;4935056;29;19915;-56
2022/06/06 11:53:34;;;;;;;7.53;2.70;;;;;;;18.28;52.79;101251.59;4934726;29;20032;-56
2022/06/06 11:56:10;;;;;;;9.75;2.65;;;;;;;17.94;54.44;101251.44;4935220;29;20090;-56
2022/06/06 11:59:03;;;;;;;6.82;2.30;;;;;;;17.73;54.61;101266.06;4935383;29;20020;-56
2022/06/06 12:01:43;;;;;;;7.75;2.20;;;;;;;17.42;55.07;101263.22;4934807;29;20477;-56
2022/06/06 12:04:34;;;;;;;8.38;2.88;;;;;;;17.36;57.14;101262.31;4934843;29;20031;-56
2022/06/06 12:07:27;;;;;;;7.60;2.40;;;;;;;17.35;56.95;101256.25;4934762;29;20024;-56
2022/06/06 12:09:57;;;;;;;8.10;2.53;;;;;;;17.38;57.87;101258.84;4935215;29;20042;-56
2022/06/06 12:12:55;;;;;;;6.82;2.55;;;;;;;17.38;57.46;101264.06;4935002;29;20027;-56
2022/06/06 12:15:23;;;;;;;5.65;2.63;;;;;;;17.24;58.06;101260.47;4930061;29;20452;-56
2022/06/06 12:18:21;;;;;;;5.45;2.58;;;;;;;17.13;58.19;101262.09;4934748;29;20030;-56
2022/06/06 12:21:05;;;;;;;8.00;3.08;;;;;;;16.95;58.09;101268.88;4937498;29;20487;-56
2022/06/06 12:24:00;;;;;;;7.18;3.00;;;;;;;16.79;61.86;101268.69;4938575;29;20072;-56
2022/06/06 12:26:43;;;;;;;8.45;3.17;;;;;;;16.64;62.75;101273.72;4938457;29;20043;-56